sensor_id;sensor_type;location;lat;lon;timestamp;temperature;humidity
54846;DHT22;53889;50.084;8.646;2023-01-05T00:00:21;10.50;99.90
54846;DHT22;53889;50.084;8.646;2023-01-05T00:02:49;10.50;99.90
54846;DHT22;53889;50.084;8.646;2023-01-05T00:05:16;10.50;99.90
54846;DHT22;53889;50.084;8.646;2023-01-05T00:07:43;10.50;99.90
54846;DHT22;53889;50.084;8.646;2023-01-05T00:10:10;10.50;99.90
54846;DHT22;53889;50.084;8.646;2023-01-05T00:12:58;10.40;99.90
54846;DHT22;53889;50.084;8.646;2023-01-05T00:15:42;10.40;99.90
54846;DHT22;53889;50.084;8.646;2023-01-05T00:18:28;10.40;99.90
54846;DHT22;53889;50.084;8.646;2023-01-05T00:21:12;10.40;99.90
54846;DHT22;53889;50.084;8.646;2023-01-05T00:23:58;10.40;99.90
54846;DHT22;53889;50.084;8.646;2023-01-05T00:26:25;10.40;99.90
54846;DHT22;53889;50.084;8.646;2023-01-05T00:28:52;10.30;99.90
54846;DHT22;53889;50.084;8.646;2023-01-05T00:31:19;10.30;99.90
54846;DHT22;53889;50.084;8.646;2023-01-05T00:33:47;10.30;99.90
54846;DHT22;53889;50.084;8.646;2023-01-05T00:36:14;10.30;99.90
54846;DHT22;53889;50.084;8.646;2023-01-05T00:38:45;10.30;99.90
54846;DHT22;53889;50.084;8.646;2023-01-05T00:41:14;10.30;99.90
54846;DHT22;53889;50.084;8.646;2023-01-05T00:43:41;10.30;99.90
54846;DHT22;53889;50.084;8.646;2023-01-05T00:46:09;10.30;99.90
54846;DHT22;53889;50.084;8.646;2023-01-05T00:48:37;10.30;99.90
54846;DHT22;53889;50.084;8.646;2023-01-05T00:51:07;10.30;99.90
54846;DHT22;53889;50.084;8.646;2023-01-05T00:53:35;10.30;99.90
54846;DHT22;53889;50.084;8.646;2023-01-05T00:56:03;10.30;99.90
54846;DHT22;53889;50.084;8.646;2023-01-05T00:58:31;10.40;99.90
54846;DHT22;53889;50.084;8.646;2023-01-05T01:00:58;10.40;99.90
54846;DHT22;53889;50.084;8.646;2023-01-05T01:03:24;10.40;99.90
54846;DHT22;53889;50.084;8.646;2023-01-05T01:05:55;10.40;99.90
54846;DHT22;53889;50.084;8.646;2023-01-05T01:08:25;10.40;99.90
54846;DHT22;53889;50.084;8.646;2023-01-05T01:10:53;10.40;99.90
54846;DHT22;53889;50.084;8.646;2023-01-05T01:13:19;10.40;99.90
54846;DHT22;53889;50.084;8.646;2023-01-05T01:15:48;10.40;99.90
54846;DHT22;53889;50.084;8.646;2023-01-05T01:18:15;10.50;99.90
54846;DHT22;53889;50.084;8.646;2023-01-05T01:20:42;10.50;99.90
54846;DHT22;53889;50.084;8.646;2023-01-05T01:23:09;10.50;99.90
54846;DHT22;53889;50.084;8.646;2023-01-05T01:25:38;10.50;99.90
54846;DHT22;53889;50.084;8.646;2023-01-05T01:28:04;10.50;99.90
54846;DHT22;53889;50.084;8.646;2023-01-05T01:30:31;10.50;99.90
54846;DHT22;53889;50.084;8.646;2023-01-05T01:32:58;10.50;99.90
54846;DHT22;53889;50.084;8.646;2023-01-05T01:35:25;10.60;99.90
54846;DHT22;53889;50.084;8.646;2023-01-05T01:37:51;10.60;99.90
54846;DHT22;53889;50.084;8.646;2023-01-05T01:40:19;10.60;99.90
54846;DHT22;53889;50.084;8.646;2023-01-05T01:42:48;10.60;99.90
54846;DHT22;53889;50.084;8.646;2023-01-05T01:45:18;10.70;99.90
54846;DHT22;53889;50.084;8.646;2023-01-05T01:47:48;10.70;99.90
54846;DHT22;53889;50.084;8.646;2023-01-05T01:50:18;10.70;99.90
54846;DHT22;53889;50.084;8.646;2023-01-05T01:52:47;10.70;99.90
54846;DHT22;53889;50.084;8.646;2023-01-05T01:55:15;10.70;99.90
54846;DHT22;53889;50.084;8.646;2023-01-05T01:57:44;10.70;99.90
54846;DHT22;53889;50.084;8.646;2023-01-05T02:00:13;10.80;99.90
54846;DHT22;53889;50.084;8.646;2023-01-05T02:02:43;10.70;99.90
54846;DHT22;53889;50.084;8.646;2023-01-05T02:05:12;10.80;99.90
54846;DHT22;53889;50.084;8.646;2023-01-05T02:07:44;10.80;99.90
54846;DHT22;53889;50.084;8.646;2023-01-05T02:10:12;10.90;99.90
54846;DHT22;53889;50.084;8.646;2023-01-05T02:12:48;10.80;99.90
54846;DHT22;53889;50.084;8.646;2023-01-05T02:15:26;10.90;99.90
54846;DHT22;53889;50.084;8.646;2023-01-05T02:18:07;10.80;99.90
54846;DHT22;53889;50.084;8.646;2023-01-05T02:21:06;10.90;99.90
54846;DHT22;53889;50.084;8.646;2023-01-05T02:23:58;10.90;99.90
54846;DHT22;53889;50.084;8.646;2023-01-05T02:26:58;10.90;99.90
54846;DHT22;53889;50.084;8.646;2023-01-05T02:30:02;10.90;99.90
54846;DHT22;53889;50.084;8.646;2023-01-05T02:32:39;10.90;99.90
54846;DHT22;53889;50.084;8.646;2023-01-05T02:35:12;10.90;99.90
54846;DHT22;53889;50.084;8.646;2023-01-05T02:37:46;10.90;99.90
54846;DHT22;53889;50.084;8.646;2023-01-05T02:40:17;10.90;99.90
54846;DHT22;53889;50.084;8.646;2023-01-05T02:42:47;10.90;99.90
54846;DHT22;53889;50.084;8.646;2023-01-05T02:45:20;10.90;99.90
54846;DHT22;53889;50.084;8.646;2023-01-05T02:47:48;10.90;99.90
54846;DHT22;53889;50.084;8.646;2023-01-05T02:50:19;10.90;99.90
54846;DHT22;53889;50.084;8.646;2023-01-05T02:52:55;10.90;99.90
54846;DHT22;53889;50.084;8.646;2023-01-05T02:55:26;10.90;99.90
54846;DHT22;53889;50.084;8.646;2023-01-05T02:58:01;10.90;99.90
54846;DHT22;53889;50.084;8.646;2023-01-05T03:00:34;10.90;99.90
54846;DHT22;53889;50.084;8.646;2023-01-05T03:03:08;10.90;99.90
54846;DHT22;53889;50.084;8.646;2023-01-05T03:05:40;10.90;99.90
54846;DHT22;53889;50.084;8.646;2023-01-05T03:08:11;10.90;99.90
54846;DHT22;53889;50.084;8.646;2023-01-05T03:10:55;11.00;99.90
54846;DHT22;53889;50.084;8.646;2023-01-05T03:13:41;10.90;99.90
54846;DHT22;53889;50.084;8.646;2023-01-05T03:16:21;10.90;99.90
54846;DHT22;53889;50.084;8.646;2023-01-05T03:18:52;10.90;99.90
54846;DHT22;53889;50.084;8.646;2023-01-05T03:21:38;10.90;99.90
54846;DHT22;53889;50.084;8.646;2023-01-05T03:24:23;10.90;99.90
54846;DHT22;53889;50.084;8.646;2023-01-05T03:27:11;10.80;99.90
54846;DHT22;53889;50.084;8.646;2023-01-05T03:29:59;10.80;99.90
54846;DHT22;53889;50.084;8.646;2023-01-05T03:32:48;10.80;99.90
54846;DHT22;53889;50.084;8.646;2023-01-05T03:35:40;10.90;99.90
54846;DHT22;53889;50.084;8.646;2023-01-05T03:38:12;10.80;99.90
54846;DHT22;53889;50.084;8.646;2023-01-05T03:40:42;10.80;99.90
54846;DHT22;53889;50.084;8.646;2023-01-05T03:43:10;10.80;99.90
54846;DHT22;53889;50.084;8.646;2023-01-05T03:45:41;10.70;99.90
54846;DHT22;53889;50.084;8.646;2023-01-05T03:48:13;10.70;99.90
54846;DHT22;53889;50.084;8.646;2023-01-05T03:50:42;10.70;99.90
54846;DHT22;53889;50.084;8.646;2023-01-05T03:53:12;10.70;99.90
54846;DHT22;53889;50.084;8.646;2023-01-05T03:55:39;10.60;99.90
54846;DHT22;53889;50.084;8.646;2023-01-05T03:58:07;10.60;99.90
54846;DHT22;53889;50.084;8.646;2023-01-05T04:00:34;10.60;99.90
54846;DHT22;53889;50.084;8.646;2023-01-05T04:03:06;10.70;99.90
54846;DHT22;53889;50.084;8.646;2023-01-05T04:05:35;10.70;99.90
54846;DHT22;53889;50.084;8.646;2023-01-05T04:08:04;10.70;99.90
54846;DHT22;53889;50.084;8.646;2023-01-05T04:10:34;10.70;99.90
54846;DHT22;53889;50.084;8.646;2023-01-05T04:13:01;10.70;99.90
54846;DHT22;53889;50.084;8.646;2023-01-05T04:15:27;10.70;99.90
54846;DHT22;53889;50.084;8.646;2023-01-05T04:17:55;10.70;99.90
54846;DHT22;53889;50.084;8.646;2023-01-05T04:20:22;10.70;99.90
54846;DHT22;53889;50.084;8.646;2023-01-05T04:22:49;10.70;99.90
54846;DHT22;53889;50.084;8.646;2023-01-05T04:25:20;10.70;99.90
54846;DHT22;53889;50.084;8.646;2023-01-05T04:27:47;10.70;99.90
54846;DHT22;53889;50.084;8.646;2023-01-05T04:30:16;10.70;99.90
54846;DHT22;53889;50.084;8.646;2023-01-05T04:32:42;10.80;99.90
54846;DHT22;53889;50.084;8.646;2023-01-05T04:35:13;10.80;99.90
54846;DHT22;53889;50.084;8.646;2023-01-05T04:37:40;10.80;99.90
54846;DHT22;53889;50.084;8.646;2023-01-05T04:40:09;10.80;99.90
54846;DHT22;53889;50.084;8.646;2023-01-05T04:42:45;10.80;99.90
54846;DHT22;53889;50.084;8.646;2023-01-05T04:45:12;10.80;99.90
54846;DHT22;53889;50.084;8.646;2023-01-05T04:47:39;10.80;99.90
54846;DHT22;53889;50.084;8.646;2023-01-05T04:50:09;10.80;99.90
54846;DHT22;53889;50.084;8.646;2023-01-05T04:52:37;10.70;99.90
54846;DHT22;53889;50.084;8.646;2023-01-05T04:55:04;10.70;99.90
54846;DHT22;53889;50.084;8.646;2023-01-05T04:57:31;10.70;99.90
54846;DHT22;53889;50.084;8.646;2023-01-05T05:00:00;10.70;99.90
54846;DHT22;53889;50.084;8.646;2023-01-05T05:02:30;10.70;99.90
54846;DHT22;53889;50.084;8.646;2023-01-05T05:04:57;10.70;99.90
54846;DHT22;53889;50.084;8.646;2023-01-05T05:07:25;10.70;99.90
54846;DHT22;53889;50.084;8.646;2023-01-05T05:09:52;10.70;99.90
54846;DHT22;53889;50.084;8.646;2023-01-05T05:12:19;10.70;99.90
54846;DHT22;53889;50.084;8.646;2023-01-05T05:14:49;10.70;99.90
54846;DHT22;53889;50.084;8.646;2023-01-05T05:17:18;10.70;99.90
54846;DHT22;53889;50.084;8.646;2023-01-05T05:19:45;10.70;99.90
54846;DHT22;53889;50.084;8.646;2023-01-05T05:22:12;10.60;99.90
54846;DHT22;53889;50.084;8.646;2023-01-05T05:24:40;10.60;99.90
54846;DHT22;53889;50.084;8.646;2023-01-05T05:27:07;10.60;99.90
54846;DHT22;53889;50.084;8.646;2023-01-05T05:29:34;10.70;99.90
54846;DHT22;53889;50.084;8.646;2023-01-05T05:32:01;10.70;99.90
54846;DHT22;53889;50.084;8.646;2023-01-05T05:34:29;10.70;99.90
54846;DHT22;53889;50.084;8.646;2023-01-05T05:36:55;10.70;99.90
54846;DHT22;53889;50.084;8.646;2023-01-05T05:39:22;10.70;99.90
54846;DHT22;53889;50.084;8.646;2023-01-05T05:41:49;10.70;99.90
54846;DHT22;53889;50.084;8.646;2023-01-05T05:44:15;10.70;99.90
54846;DHT22;53889;50.084;8.646;2023-01-05T05:46:44;10.70;99.90
54846;DHT22;53889;50.084;8.646;2023-01-05T05:49:11;10.70;99.90
54846;DHT22;53889;50.084;8.646;2023-01-05T05:51:39;10.70;99.90
54846;DHT22;53889;50.084;8.646;2023-01-05T05:54:06;10.70;99.90
54846;DHT22;53889;50.084;8.646;2023-01-05T05:56:32;10.70;99.90
54846;DHT22;53889;50.084;8.646;2023-01-05T05:58:59;10.70;99.90
54846;DHT22;53889;50.084;8.646;2023-01-05T06:01:26;11.70;99.90
54846;DHT22;53889;50.084;8.646;2023-01-05T06:03:52;10.70;99.90
54846;DHT22;53889;50.084;8.646;2023-01-05T06:06:19;10.70;99.90
54846;DHT22;53889;50.084;8.646;2023-01-05T06:08:51;10.70;99.90
54846;DHT22;53889;50.084;8.646;2023-01-05T06:11:18;10.60;99.90
54846;DHT22;53889;50.084;8.646;2023-01-05T06:13:45;10.60;99.90
54846;DHT22;53889;50.084;8.646;2023-01-05T06:16:13;10.60;99.90
54846;DHT22;53889;50.084;8.646;2023-01-05T06:18:39;10.60;99.90
54846;DHT22;53889;50.084;8.646;2023-01-05T06:21:06;10.60;99.90
54846;DHT22;53889;50.084;8.646;2023-01-05T06:23:33;10.60;99.90
54846;DHT22;53889;50.084;8.646;2023-01-05T06:26:01;10.50;99.90
54846;DHT22;53889;50.084;8.646;2023-01-05T06:28:28;10.60;99.90
54846;DHT22;53889;50.084;8.646;2023-01-05T06:30:54;10.50;99.90
54846;DHT22;53889;50.084;8.646;2023-01-05T06:33:21;10.50;99.90
54846;DHT22;53889;50.084;8.646;2023-01-05T06:35:47;10.60;99.90
54846;DHT22;53889;50.084;8.646;2023-01-05T06:38:14;10.50;99.90
54846;DHT22;53889;50.084;8.646;2023-01-05T06:40:42;10.60;99.90
54846;DHT22;53889;50.084;8.646;2023-01-05T06:43:10;10.50;99.90
54846;DHT22;53889;50.084;8.646;2023-01-05T06:45:37;10.50;99.90
54846;DHT22;53889;50.084;8.646;2023-01-05T06:48:04;10.50;99.90
54846;DHT22;53889;50.084;8.646;2023-01-05T06:50:30;10.50;99.90
54846;DHT22;53889;50.084;8.646;2023-01-05T06:52:57;10.60;99.90
54846;DHT22;53889;50.084;8.646;2023-01-05T06:55:24;10.60;99.90
54846;DHT22;53889;50.084;8.646;2023-01-05T06:57:51;10.60;99.90
54846;DHT22;53889;50.084;8.646;2023-01-05T07:00:19;10.70;99.90
54846;DHT22;53889;50.084;8.646;2023-01-05T07:02:46;10.70;99.90
54846;DHT22;53889;50.084;8.646;2023-01-05T07:05:13;10.60;99.90
54846;DHT22;53889;50.084;8.646;2023-01-05T07:07:40;10.60;99.90
54846;DHT22;53889;50.084;8.646;2023-01-05T07:10:07;10.60;99.90
54846;DHT22;53889;50.084;8.646;2023-01-05T07:12:34;10.60;99.90
54846;DHT22;53889;50.084;8.646;2023-01-05T07:15:00;10.60;99.90
54846;DHT22;53889;50.084;8.646;2023-01-05T07:17:28;10.60;99.90
54846;DHT22;53889;50.084;8.646;2023-01-05T07:19:55;10.60;99.90
54846;DHT22;53889;50.084;8.646;2023-01-05T07:22:22;10.60;99.90
54846;DHT22;53889;50.084;8.646;2023-01-05T07:24:48;10.60;99.90
54846;DHT22;53889;50.084;8.646;2023-01-05T07:27:15;10.60;99.90
54846;DHT22;53889;50.084;8.646;2023-01-05T07:29:42;10.60;99.90
54846;DHT22;53889;50.084;8.646;2023-01-05T07:32:08;10.60;99.90
54846;DHT22;53889;50.084;8.646;2023-01-05T07:34:36;10.60;99.90
54846;DHT22;53889;50.084;8.646;2023-01-05T07:37:03;10.60;99.90
54846;DHT22;53889;50.084;8.646;2023-01-05T07:39:30;10.60;99.90
54846;DHT22;53889;50.084;8.646;2023-01-05T07:41:56;10.60;99.90
54846;DHT22;53889;50.084;8.646;2023-01-05T07:44:25;10.60;99.90
54846;DHT22;53889;50.084;8.646;2023-01-05T07:46:51;10.60;99.90
54846;DHT22;53889;50.084;8.646;2023-01-05T07:49:18;10.60;99.90
54846;DHT22;53889;50.084;8.646;2023-01-05T07:51:46;10.70;99.90
54846;DHT22;53889;50.084;8.646;2023-01-05T07:54:13;10.70;99.90
54846;DHT22;53889;50.084;8.646;2023-01-05T07:56:40;10.70;99.90
54846;DHT22;53889;50.084;8.646;2023-01-05T07:59:06;10.70;99.90
54846;DHT22;53889;50.084;8.646;2023-01-05T08:01:33;10.70;99.90
54846;DHT22;53889;50.084;8.646;2023-01-05T08:04:00;10.70;99.90
54846;DHT22;53889;50.084;8.646;2023-01-05T08:06:26;10.70;99.90
54846;DHT22;53889;50.084;8.646;2023-01-05T08:08:55;10.70;99.90
54846;DHT22;53889;50.084;8.646;2023-01-05T08:11:22;10.70;99.90
54846;DHT22;53889;50.084;8.646;2023-01-05T08:13:48;10.70;99.90
54846;DHT22;53889;50.084;8.646;2023-01-05T08:16:28;10.70;99.90
54846;DHT22;53889;50.084;8.646;2023-01-05T08:18:55;10.80;99.90
54846;DHT22;53889;50.084;8.646;2023-01-05T08:21:22;10.80;99.90
54846;DHT22;53889;50.084;8.646;2023-01-05T08:23:49;10.80;99.90
54846;DHT22;53889;50.084;8.646;2023-01-05T08:26:20;10.80;99.90
54846;DHT22;53889;50.084;8.646;2023-01-05T08:28:47;10.80;99.90
54846;DHT22;53889;50.084;8.646;2023-01-05T08:31:20;10.80;99.90
54846;DHT22;53889;50.084;8.646;2023-01-05T08:33:49;10.80;99.90
54846;DHT22;53889;50.084;8.646;2023-01-05T08:36:19;10.80;99.90
54846;DHT22;53889;50.084;8.646;2023-01-05T08:38:49;10.80;99.90
54846;DHT22;53889;50.084;8.646;2023-01-05T08:41:22;10.80;99.90
54846;DHT22;53889;50.084;8.646;2023-01-05T08:43:50;10.80;99.90
54846;DHT22;53889;50.084;8.646;2023-01-05T08:46:17;10.80;99.90
54846;DHT22;53889;50.084;8.646;2023-01-05T08:48:47;10.90;99.90
54846;DHT22;53889;50.084;8.646;2023-01-05T08:51:14;10.90;99.90
54846;DHT22;53889;50.084;8.646;2023-01-05T08:53:41;10.90;99.90
54846;DHT22;53889;50.084;8.646;2023-01-05T08:56:08;10.90;99.90
54846;DHT22;53889;50.084;8.646;2023-01-05T08:58:36;10.90;99.90
54846;DHT22;53889;50.084;8.646;2023-01-05T09:01:05;10.90;99.90
54846;DHT22;53889;50.084;8.646;2023-01-05T09:03:32;10.90;99.90
54846;DHT22;53889;50.084;8.646;2023-01-05T09:05:59;10.90;99.90
54846;DHT22;53889;50.084;8.646;2023-01-05T09:08:28;11.00;99.90
54846;DHT22;53889;50.084;8.646;2023-01-05T09:10:55;11.00;99.90
54846;DHT22;53889;50.084;8.646;2023-01-05T09:13:21;11.00;99.90
54846;DHT22;53889;50.084;8.646;2023-01-05T09:15:49;11.10;99.90
54846;DHT22;53889;50.084;8.646;2023-01-05T09:18:16;11.10;99.90
54846;DHT22;53889;50.084;8.646;2023-01-05T09:20:43;11.20;99.90
54846;DHT22;53889;50.084;8.646;2023-01-05T09:23:09;11.20;99.90
54846;DHT22;53889;50.084;8.646;2023-01-05T09:25:37;11.30;99.90
54846;DHT22;53889;50.084;8.646;2023-01-05T09:28:05;11.40;99.90
54846;DHT22;53889;50.084;8.646;2023-01-05T09:30:33;11.50;99.90
54846;DHT22;53889;50.084;8.646;2023-01-05T09:33:01;11.50;99.90
54846;DHT22;53889;50.084;8.646;2023-01-05T09:35:27;11.50;99.90
54846;DHT22;53889;50.084;8.646;2023-01-05T09:37:55;11.60;99.90
54846;DHT22;53889;50.084;8.646;2023-01-05T09:40:22;11.50;99.90
54846;DHT22;53889;50.084;8.646;2023-01-05T09:42:49;11.60;99.90
54846;DHT22;53889;50.084;8.646;2023-01-05T09:45:27;11.70;99.90
54846;DHT22;53889;50.084;8.646;2023-01-05T09:47:56;11.70;99.90
54846;DHT22;53889;50.084;8.646;2023-01-05T09:50:27;11.70;99.90
54846;DHT22;53889;50.084;8.646;2023-01-05T09:52:58;11.60;99.90
54846;DHT22;53889;50.084;8.646;2023-01-05T09:55:28;11.60;99.90
54846;DHT22;53889;50.084;8.646;2023-01-05T09:57:57;12.00;99.90
54846;DHT22;53889;50.084;8.646;2023-01-05T10:00:26;11.60;99.90
54846;DHT22;53889;50.084;8.646;2023-01-05T10:02:56;11.70;99.90
54846;DHT22;53889;50.084;8.646;2023-01-05T10:05:26;11.80;99.90
54846;DHT22;53889;50.084;8.646;2023-01-05T10:07:56;12.00;99.90
54846;DHT22;53889;50.084;8.646;2023-01-05T10:10:32;12.10;99.90
54846;DHT22;53889;50.084;8.646;2023-01-05T10:13:02;12.30;99.90
54846;DHT22;53889;50.084;8.646;2023-01-05T10:15:39;12.30;99.90
54846;DHT22;53889;50.084;8.646;2023-01-05T10:18:10;12.10;99.90
54846;DHT22;53889;50.084;8.646;2023-01-05T10:20:45;12.00;99.90
54846;DHT22;53889;50.084;8.646;2023-01-05T10:23:29;11.90;99.90
54846;DHT22;53889;50.084;8.646;2023-01-05T10:26:04;11.90;99.90
54846;DHT22;53889;50.084;8.646;2023-01-05T10:28:38;11.90;99.90
54846;DHT22;53889;50.084;8.646;2023-01-05T10:31:13;11.90;99.90
54846;DHT22;53889;50.084;8.646;2023-01-05T10:33:47;11.80;99.90
54846;DHT22;53889;50.084;8.646;2023-01-05T10:36:40;11.80;99.90
54846;DHT22;53889;50.084;8.646;2023-01-05T10:39:17;11.80;99.90
54846;DHT22;53889;50.084;8.646;2023-01-05T10:41:51;12.00;99.90
54846;DHT22;53889;50.084;8.646;2023-01-05T10:44:42;12.10;99.90
54846;DHT22;53889;50.084;8.646;2023-01-05T10:47:10;12.10;99.90
54846;DHT22;53889;50.084;8.646;2023-01-05T10:49:39;12.10;99.90
54846;DHT22;53889;50.084;8.646;2023-01-05T10:52:12;12.10;99.90
54846;DHT22;53889;50.084;8.646;2023-01-05T10:54:42;12.10;99.90
54846;DHT22;53889;50.084;8.646;2023-01-05T10:57:33;12.00;99.90
54846;DHT22;53889;50.084;8.646;2023-01-05T11:00:02;12.00;99.90
54846;DHT22;53889;50.084;8.646;2023-01-05T11:02:32;12.00;99.90
54846;DHT22;53889;50.084;8.646;2023-01-05T11:05:03;12.00;99.90
54846;DHT22;53889;50.084;8.646;2023-01-05T11:07:33;12.00;99.90
54846;DHT22;53889;50.084;8.646;2023-01-05T11:10:19;12.10;99.90
54846;DHT22;53889;50.084;8.646;2023-01-05T11:12:50;12.00;99.90
54846;DHT22;53889;50.084;8.646;2023-01-05T11:15:17;12.30;99.90
54846;DHT22;53889;50.084;8.646;2023-01-05T11:17:44;12.00;99.90
54846;DHT22;53889;50.084;8.646;2023-01-05T11:20:15;12.00;99.90
54846;DHT22;53889;50.084;8.646;2023-01-05T11:22:43;11.90;99.90
54846;DHT22;53889;50.084;8.646;2023-01-05T11:25:26;11.90;99.90
54846;DHT22;53889;50.084;8.646;2023-01-05T11:28:11;12.00;99.90
54846;DHT22;53889;50.084;8.646;2023-01-05T11:30:46;12.00;99.90
54846;DHT22;53889;50.084;8.646;2023-01-05T11:33:23;12.10;99.90
54846;DHT22;53889;50.084;8.646;2023-01-05T11:35:51;12.10;99.90
54846;DHT22;53889;50.084;8.646;2023-01-05T11:38:22;12.10;99.90
54846;DHT22;53889;50.084;8.646;2023-01-05T11:40:52;12.20;99.90
54846;DHT22;53889;50.084;8.646;2023-01-05T11:43:22;12.20;99.90
54846;DHT22;53889;50.084;8.646;2023-01-05T11:45:51;12.30;99.90
54846;DHT22;53889;50.084;8.646;2023-01-05T11:48:20;12.40;99.90
54846;DHT22;53889;50.084;8.646;2023-01-05T11:50:48;12.30;99.90
54846;DHT22;53889;50.084;8.646;2023-01-05T11:53:24;12.30;99.90
54846;DHT22;53889;50.084;8.646;2023-01-05T11:56:00;12.30;99.90
54846;DHT22;53889;50.084;8.646;2023-01-05T11:58:30;12.30;99.90
54846;DHT22;53889;50.084;8.646;2023-01-05T12:01:24;12.30;99.90
54846;DHT22;53889;50.084;8.646;2023-01-05T12:04:02;12.30;99.90
54846;DHT22;53889;50.084;8.646;2023-01-05T12:06:44;12.40;99.90
54846;DHT22;53889;50.084;8.646;2023-01-05T12:09:23;12.50;99.90
54846;DHT22;53889;50.084;8.646;2023-01-05T12:12:00;12.60;99.90
54846;DHT22;53889;50.084;8.646;2023-01-05T12:14:40;12.60;99.90
54846;DHT22;53889;50.084;8.646;2023-01-05T12:17:13;12.60;99.90
54846;DHT22;53889;50.084;8.646;2023-01-05T12:19:56;12.70;99.90
54846;DHT22;53889;50.084;8.646;2023-01-05T12:22:46;12.70;99.90
54846;DHT22;53889;50.084;8.646;2023-01-05T12:25:26;12.80;99.90
54846;DHT22;53889;50.084;8.646;2023-01-05T12:28:18;13.00;99.90
54846;DHT22;53889;50.084;8.646;2023-01-05T12:30:54;13.00;99.90
54846;DHT22;53889;50.084;8.646;2023-01-05T12:33:47;13.10;99.90
54846;DHT22;53889;50.084;8.646;2023-01-05T12:36:35;13.00;99.90
54846;DHT22;53889;50.084;8.646;2023-01-05T12:39:31;12.90;99.90
54846;DHT22;53889;50.084;8.646;2023-01-05T12:42:32;12.90;99.90
54846;DHT22;53889;50.084;8.646;2023-01-05T12:48:06;13.00;99.90
54846;DHT22;53889;50.084;8.646;2023-01-05T12:50:39;13.10;99.90
54846;DHT22;53889;50.084;8.646;2023-01-05T12:53:16;13.10;99.90
54846;DHT22;53889;50.084;8.646;2023-01-05T12:55:50;13.20;99.90
54846;DHT22;53889;50.084;8.646;2023-01-05T12:58:23;13.20;99.90
54846;DHT22;53889;50.084;8.646;2023-01-05T13:00:54;13.30;99.90
54846;DHT22;53889;50.084;8.646;2023-01-05T13:05:54;13.30;99.90
54846;DHT22;53889;50.084;8.646;2023-01-05T13:08:25;13.10;99.90
54846;DHT22;53889;50.084;8.646;2023-01-05T13:10:58;13.00;99.90
54846;DHT22;53889;50.084;8.646;2023-01-05T13:13:30;12.90;99.90
54846;DHT22;53889;50.084;8.646;2023-01-05T13:16:01;12.80;99.90
54846;DHT22;53889;50.084;8.646;2023-01-05T13:18:31;12.90;99.90
54846;DHT22;53889;50.084;8.646;2023-01-05T13:21:02;12.90;99.90
54846;DHT22;53889;50.084;8.646;2023-01-05T13:23:30;12.90;99.90
54846;DHT22;53889;50.084;8.646;2023-01-05T13:26:04;12.90;99.90
54846;DHT22;53889;50.084;8.646;2023-01-05T13:28:33;12.80;99.90
54846;DHT22;53889;50.084;8.646;2023-01-05T13:34:25;12.80;99.90
54846;DHT22;53889;50.084;8.646;2023-01-05T13:37:33;12.80;99.90
54846;DHT22;53889;50.084;8.646;2023-01-05T13:40:20;12.70;99.90
54846;DHT22;53889;50.084;8.646;2023-01-05T13:43:11;12.50;99.90
54846;DHT22;53889;50.084;8.646;2023-01-05T13:46:09;13.10;99.90
54846;DHT22;53889;50.084;8.646;2023-01-05T13:48:58;13.30;99.90
54846;DHT22;53889;50.084;8.646;2023-01-05T13:51:49;13.60;99.90
54846;DHT22;53889;50.084;8.646;2023-01-05T13:54:19;13.70;99.90
54846;DHT22;53889;50.084;8.646;2023-01-05T13:56:47;13.50;99.90
54846;DHT22;53889;50.084;8.646;2023-01-05T13:59:24;13.40;99.90
54846;DHT22;53889;50.084;8.646;2023-01-05T14:01:54;13.40;99.90
54846;DHT22;53889;50.084;8.646;2023-01-05T14:04:26;13.60;99.90
54846;DHT22;53889;50.084;8.646;2023-01-05T14:06:56;13.70;99.90
54846;DHT22;53889;50.084;8.646;2023-01-05T14:09:27;13.60;99.90
54846;DHT22;53889;50.084;8.646;2023-01-05T14:12:24;13.60;99.90
54846;DHT22;53889;50.084;8.646;2023-01-05T14:15:00;13.70;99.90
54846;DHT22;53889;50.084;8.646;2023-01-05T14:17:51;13.70;99.90
54846;DHT22;53889;50.084;8.646;2023-01-05T14:20:33;13.40;99.90
54846;DHT22;53889;50.084;8.646;2023-01-05T14:23:02;13.30;99.90
54846;DHT22;53889;50.084;8.646;2023-01-05T14:25:56;13.30;99.90
54846;DHT22;53889;50.084;8.646;2023-01-05T14:28:51;13.10;99.90
54846;DHT22;53889;50.084;8.646;2023-01-05T14:31:41;12.90;99.90
54846;DHT22;53889;50.084;8.646;2023-01-05T14:34:15;12.60;99.90
54846;DHT22;53889;50.084;8.646;2023-01-05T14:36:44;12.50;99.90
54846;DHT22;53889;50.084;8.646;2023-01-05T14:39:24;12.50;99.90
54846;DHT22;53889;50.084;8.646;2023-01-05T14:42:03;12.40;99.90
54846;DHT22;53889;50.084;8.646;2023-01-05T14:44:35;12.40;99.90
54846;DHT22;53889;50.084;8.646;2023-01-05T14:47:09;12.30;99.90
54846;DHT22;53889;50.084;8.646;2023-01-05T14:49:39;12.30;99.90
54846;DHT22;53889;50.084;8.646;2023-01-05T14:52:15;12.20;99.90
54846;DHT22;53889;50.084;8.646;2023-01-05T14:55:08;12.10;99.90
54846;DHT22;53889;50.084;8.646;2023-01-05T14:57:47;12.10;99.90
54846;DHT22;53889;50.084;8.646;2023-01-05T15:00:17;11.90;99.90
54846;DHT22;53889;50.084;8.646;2023-01-05T15:02:53;12.30;99.90
54846;DHT22;53889;50.084;8.646;2023-01-05T15:05:22;11.80;99.90
54846;DHT22;53889;50.084;8.646;2023-01-05T15:07:57;11.80;99.90
54846;DHT22;53889;50.084;8.646;2023-01-05T15:10:42;11.70;99.90
54846;DHT22;53889;50.084;8.646;2023-01-05T15:16:56;11.20;99.90
54846;DHT22;53889;50.084;8.646;2023-01-05T15:19:42;11.60;99.90
54846;DHT22;53889;50.084;8.646;2023-01-05T15:22:31;11.60;99.90
54846;DHT22;53889;50.084;8.646;2023-01-05T15:28:01;11.60;99.90
54846;DHT22;53889;50.084;8.646;2023-01-05T15:30:56;11.60;99.90
54846;DHT22;53889;50.084;8.646;2023-01-05T15:33:34;11.60;99.90
54846;DHT22;53889;50.084;8.646;2023-01-05T15:36:04;11.70;99.90
54846;DHT22;53889;50.084;8.646;2023-01-05T15:38:43;11.70;99.90
54846;DHT22;53889;50.084;8.646;2023-01-05T15:41:11;12.20;99.90
54846;DHT22;53889;50.084;8.646;2023-01-05T15:43:40;11.70;99.90
54846;DHT22;53889;50.084;8.646;2023-01-05T15:46:08;11.80;99.90
54846;DHT22;53889;50.084;8.646;2023-01-05T15:48:40;11.80;99.90
54846;DHT22;53889;50.084;8.646;2023-01-05T15:51:08;11.70;99.90
54846;DHT22;53889;50.084;8.646;2023-01-05T15:53:38;11.80;99.90
54846;DHT22;53889;50.084;8.646;2023-01-05T15:56:24;11.80;99.90
54846;DHT22;53889;50.084;8.646;2023-01-05T15:58:51;11.80;99.90
54846;DHT22;53889;50.084;8.646;2023-01-05T16:01:18;11.80;99.90
54846;DHT22;53889;50.084;8.646;2023-01-05T16:03:46;11.80;99.90
54846;DHT22;53889;50.084;8.646;2023-01-05T16:06:16;11.80;99.90
54846;DHT22;53889;50.084;8.646;2023-01-05T16:08:48;11.70;99.90
54846;DHT22;53889;50.084;8.646;2023-01-05T16:11:27;11.70;99.90
54846;DHT22;53889;50.084;8.646;2023-01-05T16:14:01;11.70;99.90
54846;DHT22;53889;50.084;8.646;2023-01-05T16:16:35;11.60;99.90